createdAt,value
2023-04-02T00:02:30.862Z,100630.09
2023-04-02T00:05:34.530Z,100632.91
2023-04-02T00:08:10.399Z,100636.41
2023-04-02T00:10:40.640Z,100642.41
2023-04-02T00:13:24.931Z,100640.78
2023-04-02T00:15:57.807Z,100655.88
2023-04-02T00:18:27.141Z,100669.25
2023-04-02T00:21:02.377Z,100661.66
2023-04-02T00:23:31.700Z,100666.16
2023-04-02T00:25:59.704Z,100667.25
2023-04-02T00:28:27.660Z,100675.34
2023-04-02T00:30:59.546Z,100670.97
2023-04-02T00:33:29.741Z,100689.28
2023-04-02T00:35:58.344Z,100686.34
2023-04-02T00:38:28.663Z,100688.75
2023-04-02T00:41:01.505Z,100690.03
2023-04-02T00:43:32.857Z,100690.91
2023-04-02T00:46:03.901Z,100688.75
2023-04-02T00:48:44.292Z,100703.41
2023-04-02T00:51:17.770Z,100712.78
2023-04-02T00:53:47.689Z,100719.78
2023-04-02T00:56:25.540Z,100726.69
2023-04-02T00:58:55.985Z,100726.41
2023-04-02T01:01:25.766Z,100731.00
2023-04-02T01:03:58.364Z,100738.75
2023-04-02T01:06:31.209Z,100736.16
2023-04-02T01:09:13.101Z,100747.25
2023-04-02T01:12:17.050Z,100742.25
2023-04-02T01:14:52.919Z,100743.53
2023-04-02T01:17:42.804Z,100740.59
2023-04-02T01:20:40.044Z,100747.41
2023-04-02T01:23:13.355Z,100752.22
2023-04-02T01:25:48.157Z,100754.59
2023-04-02T01:28:21.434Z,100759.75
2023-04-02T01:30:54.186Z,100767.50
2023-04-02T01:33:24.737Z,100769.03
2023-04-02T01:35:58.553Z,100776.25
2023-04-02T01:38:32.862Z,100778.63
2023-04-02T01:41:09.149Z,100788.94
2023-04-02T01:43:47.014Z,100790.09
2023-04-02T01:46:30.301Z,100793.50
2023-04-02T01:48:58.819Z,100806.66
2023-04-02T01:51:29.585Z,100814.25
2023-04-02T01:54:01.645Z,100815.63
2023-04-02T01:56:31.468Z,100809.16
2023-04-02T01:59:01.277Z,100822.13
2023-04-02T02:01:37.327Z,100833.31
2023-04-02T02:04:05.653Z,100833.47
2023-04-02T02:06:33.792Z,100835.22
2023-04-02T02:09:04.874Z,100845.47
2023-04-02T02:11:36.621Z,100846.84
2023-04-02T02:14:14.183Z,100845.59
2023-04-02T02:16:44.937Z,100852.78
2023-04-02T02:19:23.331Z,100851.72
2023-04-02T02:21:53.795Z,100855.59
2023-04-02T02:24:24.564Z,100857.91
2023-04-02T02:27:10.419Z,100868.63
2023-04-02T02:29:41.302Z,100878.09
2023-04-02T02:32:13.942Z,100882.25
2023-04-02T02:34:49.222Z,100879.03
2023-04-02T02:37:21.726Z,100898.59
2023-04-02T02:39:54.921Z,100893.84
2023-04-02T02:42:31.246Z,100899.06
2023-04-02T02:45:03.868Z,100893.06
2023-04-02T02:47:37.065Z,100905.53
2023-04-02T02:50:15.050Z,100911.09
2023-04-02T02:52:47.946Z,100916.19
2023-04-02T02:55:19.495Z,100925.88
2023-04-02T02:58:19.348Z,100926.31
2023-04-02T03:01:07.837Z,100928.88
2023-04-02T03:03:40.520Z,100931.50
2023-04-02T03:06:16.605Z,100942.88
2023-04-02T03:08:53.306Z,100941.81
2023-04-02T03:11:33.184Z,100947.22
2023-04-02T03:14:15.672Z,100956.44
2023-04-02T03:16:48.298Z,100955.53
2023-04-02T03:19:29.922Z,100969.97
2023-04-02T03:22:03.250Z,100969.44
2023-04-02T03:24:42.597Z,100976.56
2023-04-02T03:27:16.116Z,100974.91
2023-04-02T03:29:53.426Z,100990.44
2023-04-02T03:32:24.560Z,100985.81
2023-04-02T03:34:58.845Z,100996.13
2023-04-02T03:37:34.145Z,101001.88
2023-04-02T03:40:07.320Z,101002.31
2023-04-02T03:42:41.986Z,101002.19
2023-04-02T03:45:17.565Z,101023.34
2023-04-02T03:47:50.795Z,101015.16
2023-04-02T03:50:29.862Z,101026.06
2023-04-02T03:53:01.445Z,101029.66
2023-04-02T03:55:32.873Z,101037.25
2023-04-02T03:58:06.270Z,101041.72
2023-04-02T04:00:41.313Z,101051.00
2023-04-02T04:03:15.371Z,101048.22
2023-04-02T04:05:51.758Z,101061.34
2023-04-02T04:08:25.087Z,101068.97
2023-04-02T04:10:54.786Z,101072.44
2023-04-02T04:13:30.874Z,101076.72
2023-04-02T04:16:04.577Z,101078.84
2023-04-02T04:18:37.927Z,101075.53
2023-04-02T04:21:30.812Z,101079.25
2023-04-02T04:24:09.045Z,101101.34
2023-04-02T04:26:42.771Z,101093.94
2023-04-02T04:29:28.490Z,101100.16
2023-04-02T04:31:58.814Z,101103.69
2023-04-02T04:34:38.834Z,101108.03
2023-04-02T04:37:08.583Z,101108.56
2023-04-02T04:39:45.700Z,101123.06
2023-04-02T04:42:20.213Z,101120.53
2023-04-02T04:44:56.313Z,101127.72
2023-04-02T04:47:30.960Z,101127.78
2023-04-02T04:50:07.071Z,101129.97
2023-04-02T04:52:41.987Z,101140.84
2023-04-02T04:55:27.064Z,101154.41
2023-04-02T04:57:57.833Z,101158.47
2023-04-02T05:00:29.934Z,101156.72
2023-04-02T05:03:04.639Z,101166.47
2023-04-02T05:05:37.429Z,101172.13
2023-04-02T05:08:14.797Z,101175.25
2023-04-02T05:10:48.395Z,101185.19
2023-04-02T05:13:21.862Z,101189.19
2023-04-02T05:15:56.332Z,101197.16
2023-04-02T05:18:29.714Z,101198.09
2023-04-02T05:21:06.905Z,101195.47
2023-04-02T05:23:45.763Z,101203.72
2023-04-02T05:26:17.888Z,101212.69
2023-04-02T05:28:52.107Z,101210.50
2023-04-02T05:31:25.873Z,101223.63
2023-04-02T05:33:56.498Z,101230.09
2023-04-02T05:36:26.799Z,101233.75
2023-04-02T05:39:00.064Z,101238.88
2023-04-02T05:41:40.352Z,101234.72
2023-04-02T05:44:15.059Z,101242.31
2023-04-02T05:46:48.594Z,101243.63
2023-04-02T05:49:25.895Z,101254.69
2023-04-02T05:51:58.888Z,101256.34
2023-04-02T05:54:32.142Z,101258.97
2023-04-02T05:57:05.944Z,101263.38
2023-04-02T05:59:38.662Z,101268.69
2023-04-02T06:02:15.774Z,101272.44
2023-04-02T06:04:48.529Z,101279.75
2023-04-02T06:07:22.773Z,101289.59
2023-04-02T06:09:59.157Z,101293.03
2023-04-02T06:12:33.894Z,101279.78
2023-04-02T06:15:02.429Z,101292.53
2023-04-02T06:17:44.152Z,101303.03
2023-04-02T06:20:17.202Z,101311.03
2023-04-02T06:22:50.228Z,101318.63
2023-04-02T06:25:25.519Z,101321.22
2023-04-02T06:27:57.751Z,101326.59
2023-04-02T06:30:32.133Z,101334.03
2023-04-02T06:33:01.012Z,101342.44
2023-04-02T06:35:30.866Z,101347.78
2023-04-02T06:38:06.753Z,101350.84
2023-04-02T06:40:42.715Z,101349.88
2023-04-02T06:43:41.923Z,101366.66
2023-04-02T06:46:23.966Z,101361.16
2023-04-02T06:49:16.284Z,101349.72
2023-04-02T06:51:46.363Z,101353.59
2023-04-02T06:54:16.110Z,101370.47
2023-04-02T06:56:48.978Z,101372.28
2023-04-02T06:59:33.247Z,101381.88
2023-04-02T07:02:06.473Z,101382.41
2023-04-02T07:04:35.388Z,101394.03
2023-04-02T07:07:03.642Z,101393.13
2023-04-02T07:09:35.231Z,101397.50
2023-04-02T07:12:12.244Z,101397.34
2023-04-02T07:14:40.347Z,101397.19
2023-04-02T07:17:10.982Z,101391.25
2023-04-02T07:19:38.746Z,101408.81
2023-04-02T07:22:06.592Z,101425.09
2023-04-02T07:24:39.281Z,101421.69
2023-04-02T07:27:07.223Z,101425.84
2023-04-02T07:29:37.564Z,101431.38
2023-04-02T07:32:05.746Z,101439.88
2023-04-02T07:34:33.484Z,101440.72
2023-04-02T07:37:02.532Z,101443.28
2023-04-02T07:39:30.918Z,101443.06
2023-04-02T07:42:00.864Z,101449.31
2023-04-02T07:44:29.264Z,101450.50
2023-04-02T07:46:58.809Z,101459.78
2023-04-02T07:49:27.118Z,101460.09
2023-04-02T07:51:54.975Z,101473.56
2023-04-02T07:54:22.754Z,101475.81
2023-04-02T07:56:50.673Z,101480.72
2023-04-02T07:59:21.225Z,101475.81
2023-04-02T08:01:49.171Z,101489.06
2023-04-02T08:04:20.600Z,101493.06
2023-04-02T08:06:50.113Z,101503.16
2023-04-02T08:09:18.574Z,101507.88
2023-04-02T08:11:46.712Z,101509.63
2023-04-02T08:14:14.856Z,101509.16
2023-04-02T08:16:48.011Z,101513.94
2023-04-02T08:19:16.576Z,101516.13
2023-04-02T08:21:46.175Z,101517.44
2023-04-02T08:24:14.197Z,101531.09
2023-04-02T08:26:43.972Z,101528.75
2023-04-02T08:29:13.388Z,101539.59
2023-04-02T08:31:41.650Z,101543.56
2023-04-02T08:34:09.513Z,101551.38
2023-04-02T08:36:39.870Z,101551.91
2023-04-02T08:39:11.780Z,101553.06
2023-04-02T08:41:45.689Z,101563.50
2023-04-02T08:44:24.140Z,101565.72
2023-04-02T08:46:56.118Z,101555.88
2023-04-02T08:49:31.969Z,101571.69
2023-04-02T08:52:00.939Z,101574.03
2023-04-02T08:54:32.703Z,101580.56
2023-04-02T08:57:05.627Z,101583.09
2023-04-02T08:59:36.238Z,101588.69
2023-04-02T09:02:21.672Z,101590.25
2023-04-02T09:04:50.428Z,101599.03
2023-04-02T09:07:19.066Z,101601.47
2023-04-02T09:09:50.892Z,101593.53
2023-04-02T09:12:20.988Z,101601.47
2023-04-02T09:15:00.718Z,101616.75
2023-04-02T09:17:31.193Z,101620.28
2023-04-02T09:20:08.712Z,101626.75
2023-04-02T09:22:36.779Z,101625.31
2023-04-02T09:25:13.309Z,101630.84
2023-04-02T09:27:41.270Z,101639.66
2023-04-02T09:30:24.896Z,101638.34
2023-04-02T09:32:54.358Z,101642.53
2023-04-02T09:35:39.023Z,101651.19
2023-04-02T09:38:21.993Z,101656.28
2023-04-02T09:40:59.764Z,101656.19
2023-04-02T09:43:29.137Z,101656.41
2023-04-02T09:46:00.520Z,101652.38
2023-04-02T09:48:31.662Z,101660.59
2023-04-02T09:51:08.386Z,101656.03
2023-04-02T09:53:39.103Z,101676.97
2023-04-02T09:56:12.707Z,101678.66
2023-04-02T09:58:41.795Z,101679.25
2023-04-02T10:01:27.866Z,101691.59
2023-04-02T10:03:56.315Z,101692.16
2023-04-02T10:06:24.389Z,101700.25
2023-04-02T10:08:52.673Z,101696.22
2023-04-02T10:11:36.489Z,101705.59
2023-04-02T10:14:20.076Z,101716.53
2023-04-02T10:16:51.979Z,101708.78
2023-04-02T10:19:28.155Z,101714.19
2023-04-02T10:21:56.840Z,101717.19
2023-04-02T10:24:28.276Z,101709.44
2023-04-02T10:27:09.844Z,101722.44
2023-04-02T10:29:53.012Z,101722.75
2023-04-02T10:32:26.359Z,101726.63
2023-04-02T10:35:00.556Z,101726.56
2023-04-02T10:38:03.724Z,101721.44
2023-04-02T10:40:37.340Z,101718.03
2023-04-02T10:43:53.026Z,101720.81
2023-04-02T10:46:25.953Z,101723.25
2023-04-02T10:49:03.647Z,101731.69
2023-04-02T10:51:40.349Z,101721.03
2023-04-02T10:54:24.149Z,101727.75
2023-04-02T10:56:54.801Z,101741.13
2023-04-02T10:59:28.807Z,101749.84
2023-04-02T11:02:00.334Z,101742.41
2023-04-02T11:04:32.215Z,101745.19
2023-04-02T11:07:13.071Z,101755.63
2023-04-02T11:09:46.659Z,101759.28
2023-04-02T11:12:24.183Z,101760.69
2023-04-02T11:14:55.857Z,101762.50
2023-04-02T11:17:25.255Z,101757.56
2023-04-02T11:19:54.048Z,101759.59
2023-04-02T11:22:23.009Z,101760.25
2023-04-02T11:24:53.005Z,101763.75
2023-04-02T11:27:27.689Z,101757.66
2023-04-02T11:30:05.535Z,101762.88
2023-04-02T11:32:37.788Z,101751.22
2023-04-02T11:35:38.921Z,101768.00
2023-04-02T11:38:48.221Z,101771.13
2023-04-02T11:41:54.797Z,101780.28
2023-04-02T11:44:26.164Z,101777.78
2023-04-02T11:47:16.417Z,101795.03
2023-04-02T11:50:02.553Z,101800.75
2023-04-02T11:52:34.270Z,101800.63
2023-04-02T11:55:33.100Z,101797.72
2023-04-02T11:58:24.955Z,101795.59
2023-04-02T12:01:14.846Z,101811.63
2023-04-02T12:04:07.433Z,101806.97
2023-04-02T12:06:52.035Z,101797.72
2023-04-02T12:09:24.061Z,101806.75
2023-04-02T12:11:53.653Z,101798.59
2023-04-02T12:14:35.243Z,101800.31
2023-04-02T12:17:07.747Z,101804.38
2023-04-02T12:19:38.550Z,101803.50
2023-04-02T12:22:06.843Z,101807.72
2023-04-02T12:24:34.753Z,101814.53
2023-04-02T12:27:15.500Z,101816.09
2023-04-02T12:29:44.161Z,101804.91
2023-04-02T12:32:22.464Z,101816.66
2023-04-02T12:34:53.219Z,101808.50
2023-04-02T12:37:23.319Z,101804.34
2023-04-02T12:39:59.289Z,101789.06
2023-04-02T12:42:29.057Z,101792.06
2023-04-02T12:44:56.808Z,101786.69
2023-04-02T12:47:24.913Z,101791.13
2023-04-02T12:49:54.838Z,101794.25
2023-04-02T12:52:24.652Z,101793.00
2023-04-02T12:54:54.270Z,101793.25
2023-04-02T12:57:39.529Z,101799.53
2023-04-02T13:00:36.627Z,101807.19
2023-04-02T13:03:27.285Z,101798.00
2023-04-02T13:05:58.603Z,101800.00
2023-04-02T13:08:28.844Z,101794.44
2023-04-02T13:10:58.920Z,101804.59
2023-04-02T13:13:30.329Z,101800.94
2023-04-02T13:16:05.014Z,101808.78
2023-04-02T13:18:34.436Z,101814.44
2023-04-02T13:21:04.901Z,101816.94
2023-04-02T13:23:36.188Z,101825.66
2023-04-02T13:26:17.407Z,101812.31
2023-04-02T13:28:56.027Z,101814.25
2023-04-02T13:31:23.957Z,101823.66
2023-04-02T13:33:51.907Z,101816.53
2023-04-02T13:36:21.290Z,101818.28
2023-04-02T13:38:49.493Z,101819.16
2023-04-02T13:41:23.692Z,101826.97
2023-04-02T13:43:51.870Z,101831.53
2023-04-02T13:46:23.416Z,101833.84
2023-04-02T13:48:52.914Z,101827.69
2023-04-02T13:51:25.423Z,101834.78
2023-04-02T13:53:56.744Z,101827.75
2023-04-02T13:56:24.913Z,101821.56
2023-04-02T13:58:53.371Z,101820.66
2023-04-02T14:01:22.783Z,101840.75
2023-04-02T14:03:51.345Z,101836.50
2023-04-02T14:06:31.872Z,101840.94
2023-04-02T14:09:05.348Z,101826.81
2023-04-02T14:11:46.853Z,101828.16
2023-04-02T14:14:35.069Z,101830.91
2023-04-02T14:17:12.352Z,101836.91
2023-04-02T14:19:53.550Z,101836.94
2023-04-02T14:22:32.759Z,101849.56
2023-04-02T14:25:09.990Z,101854.56
2023-04-02T14:27:44.729Z,101854.13
2023-04-02T14:30:21.517Z,101865.19
2023-04-02T14:32:59.068Z,101864.34
2023-04-02T14:35:34.928Z,101864.59
2023-04-02T14:38:13.099Z,101867.22
2023-04-02T14:40:49.463Z,101870.00
2023-04-02T14:43:22.314Z,101867.94
2023-04-02T14:45:58.763Z,101861.97
2023-04-02T14:48:38.570Z,101860.88
2023-04-02T14:51:13.534Z,101860.34
2023-04-02T14:53:52.557Z,101864.69
2023-04-02T14:56:22.900Z,101862.78
2023-04-02T14:58:55.579Z,101860.31
2023-04-02T15:01:28.765Z,101861.72
2023-04-02T15:04:02.248Z,101876.50
2023-04-02T15:06:35.496Z,101874.28
2023-04-02T15:09:09.814Z,101882.09
2023-04-02T15:11:39.401Z,101889.41
2023-04-02T15:14:17.372Z,101880.09
2023-04-02T15:16:45.920Z,101871.78
2023-04-02T15:19:15.695Z,101883.44
2023-04-02T15:21:57.196Z,101890.34
2023-04-02T15:24:36.073Z,101879.47
2023-04-02T15:27:25.221Z,101878.44
2023-04-02T15:30:00.081Z,101884.28
2023-04-02T15:32:36.259Z,101885.88
2023-04-02T15:35:18.577Z,101876.41
2023-04-02T15:37:57.886Z,101872.38
2023-04-02T15:40:47.227Z,101875.53
2023-04-02T15:43:22.229Z,101875.41
2023-04-02T15:46:06.709Z,101881.84
2023-04-02T15:49:10.315Z,101889.91
2023-04-02T15:51:52.862Z,101896.00
2023-04-02T15:54:38.032Z,101892.94
2023-04-02T15:57:19.145Z,101914.38
2023-04-02T16:00:12.639Z,101916.81
2023-04-02T16:02:59.330Z,101923.38
2023-04-02T16:05:37.489Z,101922.44
2023-04-02T16:08:25.338Z,101928.66
2023-04-02T16:10:53.200Z,101933.63
2023-04-02T16:13:32.068Z,101935.28
2023-04-02T16:16:06.437Z,101930.16
2023-04-02T16:18:45.839Z,101951.19
2023-04-02T16:21:17.555Z,101935.63
2023-04-02T16:23:45.718Z,101950.50
2023-04-02T16:26:40.213Z,101940.41
2023-04-02T16:29:23.236Z,101941.75
2023-04-02T16:31:57.754Z,101942.31
2023-04-02T16:34:37.553Z,101948.50
2023-04-02T16:37:16.510Z,101964.75
2023-04-02T16:39:50.619Z,101978.25
2023-04-02T16:42:28.236Z,101979.88
2023-04-02T16:45:04.537Z,101994.22
2023-04-02T16:47:48.426Z,101997.25
2023-04-02T16:50:27.863Z,101999.94
2023-04-02T16:53:04.078Z,102019.84
2023-04-02T16:55:43.292Z,102019.31
2023-04-02T16:58:27.021Z,102028.81
2023-04-02T17:01:00.491Z,102036.00
2023-04-02T17:03:48.761Z,102026.75
2023-04-02T17:06:31.950Z,102030.22
2023-04-02T17:09:08.925Z,102030.75
2023-04-02T17:11:50.038Z,102032.31
2023-04-02T17:14:32.126Z,102047.47
2023-04-02T17:17:05.231Z,102043.78
2023-04-02T17:19:34.066Z,102048.25
2023-04-02T17:22:04.678Z,102053.97
2023-04-02T17:24:42.181Z,102052.69
2023-04-02T17:27:18.500Z,102046.03
2023-04-02T17:29:49.961Z,102059.53
2023-04-02T17:32:23.762Z,102069.34
2023-04-02T17:34:52.783Z,102066.56
2023-04-02T17:37:31.186Z,102069.78
2023-04-02T17:40:09.474Z,102069.22
2023-04-02T17:42:53.389Z,102083.69
2023-04-02T17:45:29.294Z,102084.56
2023-04-02T17:48:04.073Z,102083.47
2023-04-02T17:50:54.497Z,102081.13
2023-04-02T17:53:36.841Z,102098.31
2023-04-02T17:56:27.692Z,102098.19
2023-04-02T17:59:23.857Z,102106.16
2023-04-02T18:02:01.073Z,102110.44
2023-04-02T18:04:41.688Z,102104.25
2023-04-02T18:07:28.529Z,102107.56
2023-04-02T18:10:05.068Z,102105.84
2023-04-02T18:12:56.036Z,102107.50
2023-04-02T18:15:49.463Z,102119.91
2023-04-02T18:18:31.700Z,102125.50
2023-04-02T18:21:14.015Z,102120.50
2023-04-02T18:23:55.390Z,102136.03
2023-04-02T18:26:36.756Z,102131.03
2023-04-02T18:29:16.830Z,102137.66
2023-04-02T18:31:51.426Z,102148.69
2023-04-02T18:34:36.244Z,102156.41
2023-04-02T18:37:18.251Z,102144.88
2023-04-02T18:39:56.189Z,102159.28
2023-04-02T18:42:39.706Z,102171.34
2023-04-02T18:45:16.111Z,102170.41
2023-04-02T18:47:54.424Z,102178.44
2023-04-02T18:50:29.123Z,102184.59
2023-04-02T18:52:58.428Z,102190.97
2023-04-02T18:55:30.900Z,102208.69
2023-04-02T18:58:05.306Z,102197.53
2023-04-02T19:00:38.206Z,102216.84
2023-04-02T19:03:13.653Z,102215.84
2023-04-02T19:05:46.117Z,102225.19
2023-04-02T19:08:20.036Z,102235.69
2023-04-02T19:10:52.405Z,102225.13
2023-04-02T19:13:21.505Z,102234.31
2023-04-02T19:16:03.084Z,102238.88
2023-04-02T19:18:40.932Z,102240.09
2023-04-02T19:21:21.991Z,102242.22
2023-04-02T19:24:16.152Z,102242.72
2023-04-02T19:26:50.360Z,102255.50
2023-04-02T19:29:29.940Z,102248.63
2023-04-02T19:32:05.903Z,102254.84
2023-04-02T19:34:40.031Z,102270.22
2023-04-02T19:37:16.882Z,102277.25
2023-04-02T19:40:13.809Z,102277.69
2023-04-02T19:42:45.590Z,102277.50
2023-04-02T19:45:25.176Z,102278.66
2023-04-02T19:47:53.366Z,102283.75
2023-04-02T19:50:23.922Z,102279.81
2023-04-02T19:52:55.947Z,102282.63
2023-04-02T19:55:25.292Z,102290.84
2023-04-02T19:57:57.797Z,102291.34
2023-04-02T20:00:32.805Z,102287.97
2023-04-02T20:03:00.899Z,102305.00
2023-04-02T20:05:28.729Z,102288.59
2023-04-02T20:07:56.673Z,102300.84
2023-04-02T20:10:25.770Z,102304.44
2023-04-02T20:12:53.539Z,102311.22
2023-04-02T20:15:21.285Z,102311.31
2023-04-02T20:17:49.073Z,102314.56
2023-04-02T20:20:17.580Z,102322.28
2023-04-02T20:22:45.324Z,102323.94
2023-04-02T20:25:13.060Z,102325.16
2023-04-02T20:27:42.201Z,102317.78
2023-04-02T20:30:10.461Z,102333.75
2023-04-02T20:32:38.428Z,102326.09
2023-04-02T20:35:07.026Z,102337.41
2023-04-02T20:37:34.833Z,102346.69
2023-04-02T20:40:02.550Z,102342.53
2023-04-02T20:42:30.557Z,102347.47
2023-04-02T20:44:59.641Z,102348.84
2023-04-02T20:47:27.382Z,102353.19
2023-04-02T20:49:55.149Z,102359.84
2023-04-02T20:52:23.233Z,102355.63
2023-04-02T20:54:51.608Z,102363.09
2023-04-02T20:57:21.703Z,102359.69
2023-04-02T20:59:49.615Z,102372.94
2023-04-02T21:02:18.924Z,102370.53
2023-04-02T21:04:46.747Z,102372.34
2023-04-02T21:07:14.518Z,102372.38
2023-04-02T21:09:42.271Z,102373.59
2023-04-02T21:12:10.034Z,102389.84
2023-04-02T21:14:39.790Z,102382.72
2023-04-02T21:17:08.403Z,102389.53
2023-04-02T21:19:37.707Z,102391.47
2023-04-02T21:22:05.410Z,102396.34
2023-04-02T21:24:33.277Z,102397.28
2023-04-02T21:27:01.079Z,102399.78
2023-04-02T21:29:28.785Z,102402.69
2023-04-02T21:31:56.797Z,102404.41
2023-04-02T21:34:24.624Z,102406.41
2023-04-02T21:36:53.732Z,102409.75
2023-04-02T21:39:23.910Z,102417.81
2023-04-02T21:41:53.134Z,102421.22
2023-04-02T21:44:23.008Z,102426.44
2023-04-02T21:46:53.636Z,102430.63
2023-04-02T21:49:23.066Z,102432.41
2023-04-02T21:51:52.334Z,102430.81
2023-04-02T21:54:21.487Z,102434.63
2023-04-02T21:56:49.745Z,102434.50
2023-04-02T21:59:18.676Z,102442.75
2023-04-02T22:01:48.492Z,102441.56
2023-04-02T22:04:18.891Z,102452.66
2023-04-02T22:06:47.254Z,102443.81
2023-04-02T22:09:17.363Z,102457.91
2023-04-02T22:11:48.650Z,102455.34
2023-04-02T22:14:16.531Z,102459.94
2023-04-02T22:16:44.921Z,102466.06
2023-04-02T22:19:15.269Z,102450.56
2023-04-02T22:21:43.553Z,102457.13
2023-04-02T22:24:14.897Z,102459.81
2023-04-02T22:26:43.110Z,102468.63
2023-04-02T22:29:12.898Z,102473.19
2023-04-02T22:31:40.719Z,102477.47
2023-04-02T22:34:08.939Z,102481.13
2023-04-02T22:36:36.976Z,102468.38
2023-04-02T22:39:10.161Z,102461.22
2023-04-02T22:41:38.310Z,102470.19
2023-04-02T22:44:06.111Z,102473.81
2023-04-02T22:46:35.737Z,102470.16
2023-04-02T22:49:04.330Z,102479.03
2023-04-02T22:51:32.139Z,102475.38
2023-04-02T22:54:00.097Z,102489.88
2023-04-02T22:56:31.901Z,102487.25
2023-04-02T22:59:00.761Z,102495.94
2023-04-02T23:01:31.367Z,102490.81
2023-04-02T23:04:01.433Z,102491.47
2023-04-02T23:06:29.695Z,102497.84
2023-04-02T23:08:57.636Z,102500.69
2023-04-02T23:11:27.523Z,102491.84
2023-04-02T23:13:57.777Z,102488.25
2023-04-02T23:16:27.486Z,102499.84
2023-04-02T23:18:55.535Z,102508.63
2023-04-02T23:21:25.946Z,102515.81
2023-04-02T23:23:53.840Z,102506.81
2023-04-02T23:26:23.501Z,102503.38
2023-04-02T23:28:51.742Z,102503.34
2023-04-02T23:31:21.967Z,102503.34
2023-04-02T23:33:50.580Z,102498.91
2023-04-02T23:36:22.349Z,102499.84
2023-04-02T23:38:54.958Z,102505.97
2023-04-02T23:41:24.066Z,102509.53
2023-04-02T23:43:52.004Z,102518.34
2023-04-02T23:46:20.496Z,102520.09
2023-04-02T23:48:50.522Z,102523.78
2023-04-02T23:51:19.310Z,102512.22
2023-04-02T23:53:47.160Z,102518.41
2023-04-02T23:56:16.353Z,102518.44
2023-04-02T23:58:44.301Z,102525.53
